createdAt,value
2022-10-23T08:22:21.415Z,8.38
2022-10-23T08:24:48.587Z,8.50
2022-10-23T08:27:15.312Z,8.15
2022-10-23T08:29:43.274Z,7.07
2022-10-23T08:32:10.081Z,4.43
2022-10-23T08:34:42.109Z,8.60
2022-10-23T08:37:08.854Z,7.37
2022-10-23T08:39:36.316Z,10.18
2022-10-23T08:42:03.186Z,7.40
2022-10-23T08:44:39.078Z,8.30
2022-10-23T08:47:14.357Z,8.52
2022-10-23T08:49:50.894Z,8.60
2022-10-23T08:52:31.870Z,11.32
2022-10-23T08:55:04.192Z,13.55
2022-10-23T08:57:38.778Z,7.22
2022-10-23T09:00:09.118Z,8.48
2022-10-23T09:02:45.545Z,7.57
2022-10-23T09:05:15.843Z,7.28
2022-10-23T09:08:00.662Z,7.88
2022-10-23T09:10:55.624Z,9.05
2022-10-23T09:13:34.326Z,7.82
2022-10-23T09:16:42.205Z,9.23
2022-10-23T09:19:15.429Z,15.07
2022-10-23T09:21:42.417Z,10.68
2022-10-23T09:24:14.497Z,12.38
2022-10-23T09:26:42.768Z,12.07
2022-10-23T09:29:29.691Z,10.48
2022-10-23T09:31:58.374Z,10.50
2022-10-23T09:34:26.963Z,10.73
2022-10-23T09:36:58.899Z,10.82
2022-10-23T09:39:32.521Z,13.52
2022-10-23T09:41:59.989Z,14.48
2022-10-23T09:44:28.569Z,17.00
2022-10-23T09:47:00.370Z,16.20
2022-10-23T09:49:31.237Z,18.13
2022-10-23T09:52:02.290Z,21.15
2022-10-23T09:54:59.026Z,22.35
2022-10-23T09:57:41.509Z,22.75
2022-10-23T10:00:16.318Z,24.83
2022-10-23T10:02:44.400Z,26.92
2022-10-23T10:05:31.252Z,25.52
2022-10-23T10:08:10.790Z,24.23
2022-10-23T10:10:44.785Z,24.42
2022-10-23T10:13:33.431Z,24.00
2022-10-23T10:16:11.572Z,23.10
2022-10-23T10:18:40.786Z,28.13
2022-10-23T10:21:28.719Z,24.77
2022-10-23T10:23:58.252Z,27.85
2022-10-23T10:26:42.976Z,30.60
2022-10-23T10:29:30.044Z,27.83
2022-10-23T10:32:15.381Z,28.10
2022-10-23T10:34:42.418Z,27.13
2022-10-23T10:37:24.172Z,29.83
2022-10-23T10:40:14.375Z,28.25
2022-10-23T10:42:43.934Z,30.73
2022-10-23T10:45:13.753Z,35.83
2022-10-23T10:47:43.903Z,29.67
2022-10-23T10:50:25.851Z,31.77
2022-10-23T10:53:08.665Z,30.00
2022-10-23T10:55:38.963Z,31.08
2022-10-23T10:58:28.678Z,33.30
2022-10-23T11:00:57.112Z,30.90
2022-10-23T11:04:11.601Z,32.20
2022-10-23T11:06:38.649Z,30.15
2022-10-23T11:09:20.404Z,27.48
2022-10-23T11:11:48.670Z,30.63
2022-10-23T11:14:23.121Z,29.73
2022-10-23T11:17:12.372Z,24.52
2022-10-23T11:20:03.523Z,21.90
2022-10-23T11:22:36.466Z,21.63
2022-10-23T11:25:41.001Z,16.42
2022-10-23T11:28:13.286Z,12.18
2022-10-23T11:31:12.149Z,8.33
2022-10-23T11:33:57.969Z,10.55
2022-10-23T11:36:43.544Z,8.70
2022-10-23T11:39:22.612Z,12.70
2022-10-23T11:42:00.433Z,8.30
2022-10-23T11:44:48.481Z,7.90
2022-10-23T11:47:39.747Z,8.70
2022-10-23T11:50:07.229Z,8.70
2022-10-23T11:53:12.564Z,7.15
2022-10-23T11:55:39.274Z,19.13
2022-10-23T11:58:23.573Z,14.10
2022-10-23T12:01:15.479Z,7.70
2022-10-23T12:03:49.698Z,8.00
2022-10-23T12:06:26.407Z,11.95
2022-10-23T12:08:55.236Z,8.82
2022-10-23T12:11:39.419Z,8.05
2022-10-23T12:14:07.759Z,12.55
2022-10-23T12:16:35.756Z,8.38
2022-10-23T12:19:11.237Z,9.20
2022-10-23T12:21:38.002Z,9.10
2022-10-23T12:24:29.342Z,9.50
2022-10-23T12:27:06.485Z,13.70
2022-10-23T12:29:45.142Z,10.77
2022-10-23T12:32:27.069Z,9.00
2022-10-23T12:35:05.790Z,9.10
2022-10-23T12:37:41.439Z,13.00
2022-10-23T12:40:09.248Z,14.50
2022-10-23T12:42:36.046Z,8.98
2022-10-23T12:45:19.317Z,21.92
2022-10-23T12:50:30.248Z,14.40
2022-10-23T12:53:04.808Z,14.02
2022-10-23T12:55:53.047Z,13.88
2022-10-23T12:58:33.474Z,12.40
2022-10-23T13:01:02.630Z,13.02
2022-10-23T13:03:30.288Z,13.90
2022-10-23T13:05:58.869Z,11.93
2022-10-23T13:08:29.580Z,21.17
2022-10-23T13:10:56.312Z,19.75
2022-10-23T13:13:23.326Z,16.42
2022-10-23T13:15:50.211Z,14.95
2022-10-23T13:18:17.411Z,14.07
2022-10-23T13:20:58.520Z,16.85
2022-10-23T13:23:32.009Z,20.20
2022-10-23T13:26:02.785Z,18.88
2022-10-23T13:28:45.641Z,22.83
2022-10-23T13:31:16.538Z,21.10
2022-10-23T13:33:48.378Z,18.35
2022-10-23T13:36:15.341Z,17.48
2022-10-23T13:38:44.088Z,16.42
2022-10-23T13:41:18.301Z,17.20
2022-10-23T13:43:46.616Z,15.48
2022-10-23T13:46:25.800Z,17.95
2022-10-23T13:48:53.098Z,17.67
2022-10-23T13:51:21.193Z,17.00
2022-10-23T13:53:48.346Z,16.45
2022-10-23T13:56:16.846Z,15.32
2022-10-23T13:58:43.919Z,19.10
2022-10-23T14:01:24.991Z,19.73
2022-10-23T14:03:52.856Z,15.48
2022-10-23T14:06:20.139Z,14.38
2022-10-23T14:08:47.295Z,16.90
2022-10-23T14:13:47.978Z,13.55
2022-10-23T14:16:18.374Z,13.77
2022-10-23T14:18:47.968Z,16.60
2022-10-23T14:21:16.422Z,14.15
2022-10-23T14:23:43.330Z,14.48
2022-10-23T14:26:11.851Z,15.18
2022-10-23T14:28:39.165Z,17.08
2022-10-23T14:31:14.128Z,14.82
2022-10-23T14:33:41.751Z,16.92
2022-10-23T14:36:09.200Z,18.52
2022-10-23T14:38:36.619Z,20.48
2022-10-23T14:41:03.791Z,21.77
2022-10-23T14:43:30.690Z,21.00
2022-10-23T14:45:57.554Z,23.25
2022-10-23T14:48:24.378Z,26.58
2022-10-23T14:50:51.226Z,22.67
2022-10-23T14:53:18.133Z,24.85
2022-10-23T14:55:56.328Z,26.27
2022-10-23T14:58:37.833Z,26.88
2022-10-23T15:01:20.096Z,28.02
2022-10-23T15:03:59.579Z,32.55
2022-10-23T15:06:38.218Z,30.83
2022-10-23T15:09:19.935Z,31.98
2022-10-23T15:12:00.036Z,37.97
2022-10-23T15:14:41.025Z,35.55
2022-10-23T15:17:26.137Z,37.08
2022-10-23T15:20:04.958Z,44.75
2022-10-23T15:22:52.679Z,45.97
2022-10-23T15:25:34.846Z,46.17
2022-10-23T15:28:12.882Z,48.22
2022-10-23T15:30:49.151Z,50.33
2022-10-23T15:33:29.735Z,50.65
2022-10-23T15:36:15.295Z,48.20
2022-10-23T15:38:56.108Z,59.17
2022-10-23T15:41:40.704Z,53.75
2022-10-23T15:44:33.963Z,55.67
2022-10-23T15:47:09.945Z,58.70
2022-10-23T15:49:52.762Z,64.28
2022-10-23T15:52:33.232Z,63.10
2022-10-23T15:55:17.887Z,62.67
2022-10-23T15:58:08.852Z,63.40
2022-10-23T16:00:44.931Z,69.05
2022-10-23T16:03:28.005Z,66.45
2022-10-23T16:06:10.987Z,62.95
2022-10-23T16:11:37.678Z,62.17
2022-10-23T16:14:20.940Z,64.30
2022-10-23T16:17:02.878Z,61.90
2022-10-23T16:19:47.622Z,63.20
2022-10-23T16:22:16.148Z,61.17
2022-10-23T16:24:43.010Z,63.15
2022-10-23T16:27:09.764Z,60.95
2022-10-23T16:29:36.535Z,62.28
2022-10-23T16:32:03.365Z,64.97
2022-10-23T16:34:30.090Z,64.70
2022-10-23T16:36:56.817Z,65.22
2022-10-23T16:39:23.539Z,65.50
2022-10-23T16:41:50.277Z,64.88
2022-10-23T16:44:17.213Z,66.50
2022-10-23T16:46:43.932Z,68.85
2022-10-23T16:49:10.678Z,70.82
2022-10-23T16:51:37.490Z,68.20
2022-10-23T16:54:04.332Z,69.80
2022-10-23T16:56:31.386Z,77.40
2022-10-23T17:01:31.117Z,72.80
2022-10-23T17:03:58.023Z,78.78
2022-10-23T17:06:27.094Z,76.18
2022-10-23T17:08:54.742Z,85.82
2022-10-23T17:11:32.371Z,78.65
2022-10-23T17:14:05.742Z,88.38
2022-10-23T17:16:59.166Z,79.53
2022-10-23T17:19:46.846Z,89.40
2022-10-23T17:22:25.056Z,74.22
2022-10-23T17:25:04.044Z,78.78
2022-10-23T17:27:46.380Z,83.05
2022-10-23T17:30:22.483Z,81.32
2022-10-23T17:33:08.134Z,83.63
2022-10-23T17:36:07.111Z,83.95
2022-10-23T17:39:01.305Z,87.13
2022-10-23T17:41:58.120Z,63.80
2022-10-23T17:44:40.437Z,64.32
2022-10-23T17:47:41.151Z,65.63
2022-10-23T17:50:38.087Z,61.70
2022-10-23T17:53:39.817Z,60.97
2022-10-23T17:56:26.970Z,65.00
2022-10-23T17:59:10.045Z,62.53
2022-10-23T18:01:55.166Z,57.25
2022-10-23T18:04:30.112Z,53.47
2022-10-23T18:07:11.159Z,60.35
2022-10-23T18:09:50.573Z,58.25
2022-10-23T18:12:34.131Z,64.35
2022-10-23T18:15:18.440Z,58.90
2022-10-23T18:18:11.700Z,69.57
2022-10-23T18:21:10.529Z,62.05
2022-10-23T18:23:52.186Z,57.50
2022-10-23T18:26:37.723Z,59.63
2022-10-23T18:29:07.484Z,60.65
2022-10-23T18:31:46.020Z,58.85
2022-10-23T18:34:27.962Z,55.95
2022-10-23T18:37:09.595Z,54.95
2022-10-23T18:39:58.202Z,58.08
2022-10-23T18:42:34.130Z,58.70
2022-10-23T18:45:21.667Z,55.42
2022-10-23T18:48:15.586Z,61.95
2022-10-23T18:50:51.285Z,52.40
2022-10-23T18:53:46.987Z,55.13
2022-10-23T18:56:30.236Z,48.88
2022-10-23T18:59:06.985Z,50.40
2022-10-23T19:01:47.119Z,52.85
2022-10-23T19:04:26.041Z,49.50
2022-10-23T19:07:30.338Z,46.00
2022-10-23T19:10:19.023Z,48.22
2022-10-23T19:12:58.158Z,47.88
2022-10-23T19:15:39.867Z,55.47
2022-10-23T19:18:18.971Z,45.17
2022-10-23T19:21:01.134Z,45.72
2022-10-23T19:23:46.013Z,45.97
2022-10-23T19:26:25.202Z,42.30
2022-10-23T19:29:03.883Z,41.92
2022-10-23T19:31:53.979Z,44.83
2022-10-23T19:34:33.129Z,45.83
2022-10-23T19:37:24.100Z,43.03
2022-10-23T19:40:03.167Z,41.08
2022-10-23T19:42:43.720Z,42.25
2022-10-23T19:48:18.888Z,43.42
2022-10-23T19:51:03.153Z,42.63
2022-10-23T19:53:54.257Z,38.22
2022-10-23T19:56:33.258Z,36.28
2022-10-23T19:59:25.084Z,37.92
2022-10-23T20:02:17.323Z,39.22
2022-10-23T20:05:03.117Z,40.35
2022-10-23T20:07:39.196Z,40.42
2022-10-23T20:10:20.191Z,39.53
2022-10-23T20:12:57.098Z,38.67
2022-10-23T20:15:45.794Z,43.25
2022-10-23T20:18:38.232Z,37.13
2022-10-23T20:21:17.247Z,42.72
2022-10-23T20:23:58.438Z,43.55
2022-10-23T20:26:32.986Z,47.10
2022-10-23T20:29:14.683Z,46.00
2022-10-23T20:31:54.202Z,45.60
2022-10-23T20:34:29.128Z,42.97
2022-10-23T20:37:13.640Z,48.28
2022-10-23T20:40:01.098Z,45.83
2022-10-23T20:42:42.239Z,41.35
2022-10-23T20:45:23.754Z,51.53
2022-10-23T20:48:14.684Z,49.80
2022-10-23T20:50:53.242Z,51.72
2022-10-23T20:53:33.174Z,49.67
2022-10-23T20:56:36.074Z,48.88
2022-10-23T20:59:37.958Z,46.53
2022-10-23T21:02:16.878Z,49.15
2022-10-23T21:05:05.370Z,48.13
2022-10-23T21:07:43.977Z,42.55
2022-10-23T21:10:28.414Z,44.83
2022-10-23T21:13:12.339Z,47.38
2022-10-23T21:15:50.966Z,46.30
2022-10-23T21:18:45.405Z,46.80
2022-10-23T21:21:37.056Z,45.28
2022-10-23T21:24:23.295Z,42.17
2022-10-23T21:27:06.141Z,40.15
2022-10-23T21:29:48.152Z,43.95
2022-10-23T21:32:30.860Z,43.10
2022-10-23T21:35:14.040Z,46.55
2022-10-23T21:37:56.086Z,39.95
2022-10-23T21:40:39.209Z,41.55
2022-10-23T21:43:22.057Z,36.45
2022-10-23T21:46:04.200Z,46.90
2022-10-23T21:48:46.484Z,40.00
2022-10-23T21:51:34.559Z,39.15
2022-10-23T21:54:17.938Z,35.88
